sensor_id;sensor_type;location;lat;lon;timestamp;P1;durP1;ratioP1;P2;durP2;ratioP2
12050;SDS011;6086;43.546;26.474;2022-08-03T00:00:58;3.40;;;3.10;;
12050;SDS011;6086;43.546;26.474;2022-08-03T00:03:25;3.67;;;3.37;;
12050;SDS011;6086;43.546;26.474;2022-08-03T00:05:52;5.03;;;4.10;;
12050;SDS011;6086;43.546;26.474;2022-08-03T00:08:19;10.93;;;5.17;;
12050;SDS011;6086;43.546;26.474;2022-08-03T00:10:46;4.60;;;3.83;;
12050;SDS011;6086;43.546;26.474;2022-08-03T00:13:13;4.00;;;2.97;;
12050;SDS011;6086;43.546;26.474;2022-08-03T00:15:41;4.50;;;3.47;;
12050;SDS011;6086;43.546;26.474;2022-08-03T00:18:09;4.10;;;3.40;;
12050;SDS011;6086;43.546;26.474;2022-08-03T00:20:36;4.90;;;3.63;;
12050;SDS011;6086;43.546;26.474;2022-08-03T00:23:03;7.00;;;3.93;;
12050;SDS011;6086;43.546;26.474;2022-08-03T00:25:31;3.53;;;3.23;;
12050;SDS011;6086;43.546;26.474;2022-08-03T00:27:58;3.40;;;3.07;;
12050;SDS011;6086;43.546;26.474;2022-08-03T00:30:25;5.00;;;3.47;;
12050;SDS011;6086;43.546;26.474;2022-08-03T00:32:52;3.90;;;3.50;;
12050;SDS011;6086;43.546;26.474;2022-08-03T00:35:21;4.33;;;3.43;;
12050;SDS011;6086;43.546;26.474;2022-08-03T00:37:48;4.00;;;3.57;;
12050;SDS011;6086;43.546;26.474;2022-08-03T00:40:17;4.43;;;3.50;;
12050;SDS011;6086;43.546;26.474;2022-08-03T00:42:45;4.27;;;3.73;;
12050;SDS011;6086;43.546;26.474;2022-08-03T00:45:18;3.70;;;3.40;;
12050;SDS011;6086;43.546;26.474;2022-08-03T00:47:45;3.87;;;3.57;;
12050;SDS011;6086;43.546;26.474;2022-08-03T00:50:13;5.40;;;3.30;;
12050;SDS011;6086;43.546;26.474;2022-08-03T00:52:41;4.57;;;3.77;;
12050;SDS011;6086;43.546;26.474;2022-08-03T00:55:09;3.93;;;3.53;;
12050;SDS011;6086;43.546;26.474;2022-08-03T00:57:36;4.70;;;3.70;;
12050;SDS011;6086;43.546;26.474;2022-08-03T01:00:05;3.47;;;3.17;;
12050;SDS011;6086;43.546;26.474;2022-08-03T01:02:33;3.33;;;3.03;;
12050;SDS011;6086;43.546;26.474;2022-08-03T01:05:00;5.73;;;3.40;;
12050;SDS011;6086;43.546;26.474;2022-08-03T01:07:31;3.10;;;2.90;;
12050;SDS011;6086;43.546;26.474;2022-08-03T01:10:12;3.63;;;3.33;;
12050;SDS011;6086;43.546;26.474;2022-08-03T01:12:47;3.73;;;3.33;;
12050;SDS011;6086;43.546;26.474;2022-08-03T01:15:23;3.53;;;3.23;;
12050;SDS011;6086;43.546;26.474;2022-08-03T01:17:55;3.93;;;3.27;;
12050;SDS011;6086;43.546;26.474;2022-08-03T01:20:26;4.07;;;3.67;;
12050;SDS011;6086;43.546;26.474;2022-08-03T01:23:05;4.77;;;4.10;;
12050;SDS011;6086;43.546;26.474;2022-08-03T01:25:50;4.40;;;3.87;;
12050;SDS011;6086;43.546;26.474;2022-08-03T01:28:35;3.80;;;3.50;;
12050;SDS011;6086;43.546;26.474;2022-08-03T01:31:22;3.40;;;2.90;;
12050;SDS011;6086;43.546;26.474;2022-08-03T01:33:55;3.07;;;2.83;;
12050;SDS011;6086;43.546;26.474;2022-08-03T01:36:25;3.90;;;3.13;;
12050;SDS011;6086;43.546;26.474;2022-08-03T01:38:56;3.90;;;3.13;;
12050;SDS011;6086;43.546;26.474;2022-08-03T01:41:28;3.73;;;2.60;;
12050;SDS011;6086;43.546;26.474;2022-08-03T01:43:58;2.97;;;2.77;;
12050;SDS011;6086;43.546;26.474;2022-08-03T01:46:30;3.27;;;3.00;;
12050;SDS011;6086;43.546;26.474;2022-08-03T01:48:57;3.37;;;3.17;;
12050;SDS011;6086;43.546;26.474;2022-08-03T01:51:25;4.27;;;3.60;;
12050;SDS011;6086;43.546;26.474;2022-08-03T01:53:54;3.97;;;3.13;;
12050;SDS011;6086;43.546;26.474;2022-08-03T01:56:22;3.40;;;3.10;;
12050;SDS011;6086;43.546;26.474;2022-08-03T01:58:51;3.47;;;3.13;;
12050;SDS011;6086;43.546;26.474;2022-08-03T02:01:20;4.13;;;3.43;;
12050;SDS011;6086;43.546;26.474;2022-08-03T02:03:50;4.87;;;3.17;;
12050;SDS011;6086;43.546;26.474;2022-08-03T02:06:19;3.80;;;3.33;;
12050;SDS011;6086;43.546;26.474;2022-08-03T02:08:48;4.07;;;3.50;;
12050;SDS011;6086;43.546;26.474;2022-08-03T02:11:17;4.87;;;3.90;;
12050;SDS011;6086;43.546;26.474;2022-08-03T02:13:45;5.33;;;4.17;;
12050;SDS011;6086;43.546;26.474;2022-08-03T02:16:16;5.67;;;3.80;;
12050;SDS011;6086;43.546;26.474;2022-08-03T02:18:44;7.93;;;4.10;;
12050;SDS011;6086;43.546;26.474;2022-08-03T02:21:14;4.30;;;3.53;;
12050;SDS011;6086;43.546;26.474;2022-08-03T02:23:42;4.40;;;4.00;;
12050;SDS011;6086;43.546;26.474;2022-08-03T02:26:10;6.87;;;3.97;;
12050;SDS011;6086;43.546;26.474;2022-08-03T02:28:42;3.83;;;3.37;;
12050;SDS011;6086;43.546;26.474;2022-08-03T02:31:14;4.30;;;3.90;;
12050;SDS011;6086;43.546;26.474;2022-08-03T02:33:45;5.97;;;4.10;;
12050;SDS011;6086;43.546;26.474;2022-08-03T02:36:18;4.57;;;3.70;;
12050;SDS011;6086;43.546;26.474;2022-08-03T02:38:48;4.83;;;3.80;;
12050;SDS011;6086;43.546;26.474;2022-08-03T02:41:20;5.30;;;4.23;;
12050;SDS011;6086;43.546;26.474;2022-08-03T02:43:50;4.40;;;4.00;;
12050;SDS011;6086;43.546;26.474;2022-08-03T02:46:21;5.93;;;4.20;;
12050;SDS011;6086;43.546;26.474;2022-08-03T02:48:51;4.77;;;3.73;;
12050;SDS011;6086;43.546;26.474;2022-08-03T02:51:22;4.10;;;3.43;;
12050;SDS011;6086;43.546;26.474;2022-08-03T02:53:51;3.83;;;3.43;;
12050;SDS011;6086;43.546;26.474;2022-08-03T02:56:21;4.40;;;4.00;;
12050;SDS011;6086;43.546;26.474;2022-08-03T02:58:50;4.57;;;3.87;;
12050;SDS011;6086;43.546;26.474;2022-08-03T03:01:19;5.30;;;4.13;;
12050;SDS011;6086;43.546;26.474;2022-08-03T03:03:47;5.87;;;3.53;;
12050;SDS011;6086;43.546;26.474;2022-08-03T03:06:16;4.17;;;3.77;;
12050;SDS011;6086;43.546;26.474;2022-08-03T03:08:46;6.30;;;3.30;;
12050;SDS011;6086;43.546;26.474;2022-08-03T03:11:14;4.20;;;3.80;;
12050;SDS011;6086;43.546;26.474;2022-08-03T03:13:43;4.67;;;4.03;;
12050;SDS011;6086;43.546;26.474;2022-08-03T03:16:12;5.20;;;3.80;;
12050;SDS011;6086;43.546;26.474;2022-08-03T03:18:41;4.07;;;3.70;;
12050;SDS011;6086;43.546;26.474;2022-08-03T03:21:09;3.93;;;3.57;;
12050;SDS011;6086;43.546;26.474;2022-08-03T03:23:38;4.23;;;3.80;;
12050;SDS011;6086;43.546;26.474;2022-08-03T03:26:08;5.23;;;4.43;;
12050;SDS011;6086;43.546;26.474;2022-08-03T03:28:35;4.87;;;3.50;;
12050;SDS011;6086;43.546;26.474;2022-08-03T03:31:03;4.60;;;3.67;;
12050;SDS011;6086;43.546;26.474;2022-08-03T03:33:30;3.77;;;3.47;;
12050;SDS011;6086;43.546;26.474;2022-08-03T03:35:58;4.83;;;4.03;;
12050;SDS011;6086;43.546;26.474;2022-08-03T03:38:25;5.37;;;4.27;;
12050;SDS011;6086;43.546;26.474;2022-08-03T03:40:52;4.23;;;3.80;;
12050;SDS011;6086;43.546;26.474;2022-08-03T03:43:22;4.30;;;3.90;;
12050;SDS011;6086;43.546;26.474;2022-08-03T03:45:49;7.77;;;3.83;;
12050;SDS011;6086;43.546;26.474;2022-08-03T03:48:18;6.87;;;5.33;;
12050;SDS011;6086;43.546;26.474;2022-08-03T03:50:45;5.57;;;3.87;;
12050;SDS011;6086;43.546;26.474;2022-08-03T03:53:15;6.30;;;3.43;;
12050;SDS011;6086;43.546;26.474;2022-08-03T03:55:42;4.80;;;3.87;;
12050;SDS011;6086;43.546;26.474;2022-08-03T03:58:09;6.57;;;3.73;;
12050;SDS011;6086;43.546;26.474;2022-08-03T04:00:37;6.77;;;4.53;;
12050;SDS011;6086;43.546;26.474;2022-08-03T04:03:04;7.27;;;4.23;;
12050;SDS011;6086;43.546;26.474;2022-08-03T04:05:31;4.30;;;3.60;;
12050;SDS011;6086;43.546;26.474;2022-08-03T04:08:16;4.97;;;3.70;;
12050;SDS011;6086;43.546;26.474;2022-08-03T04:11:04;4.07;;;3.53;;
12050;SDS011;6086;43.546;26.474;2022-08-03T04:13:37;4.87;;;4.20;;
12050;SDS011;6086;43.546;26.474;2022-08-03T04:16:09;3.73;;;3.37;;
12050;SDS011;6086;43.546;26.474;2022-08-03T04:18:40;7.00;;;4.50;;
12050;SDS011;6086;43.546;26.474;2022-08-03T04:21:11;5.27;;;3.87;;
12050;SDS011;6086;43.546;26.474;2022-08-03T04:23:42;5.50;;;3.40;;
12050;SDS011;6086;43.546;26.474;2022-08-03T04:26:12;4.63;;;3.93;;
12050;SDS011;6086;43.546;26.474;2022-08-03T04:28:42;4.00;;;3.60;;
12050;SDS011;6086;43.546;26.474;2022-08-03T04:31:12;4.40;;;4.00;;
12050;SDS011;6086;43.546;26.474;2022-08-03T04:33:40;6.80;;;4.13;;
12050;SDS011;6086;43.546;26.474;2022-08-03T04:36:10;11.87;;;4.60;;
12050;SDS011;6086;43.546;26.474;2022-08-03T04:38:43;5.53;;;4.03;;
12050;SDS011;6086;43.546;26.474;2022-08-03T04:41:23;4.47;;;3.83;;
12050;SDS011;6086;43.546;26.474;2022-08-03T04:43:52;4.97;;;3.60;;
12050;SDS011;6086;43.546;26.474;2022-08-03T04:46:23;4.93;;;3.97;;
12050;SDS011;6086;43.546;26.474;2022-08-03T04:48:53;4.17;;;3.83;;
12050;SDS011;6086;43.546;26.474;2022-08-03T04:51:20;3.80;;;3.50;;
12050;SDS011;6086;43.546;26.474;2022-08-03T04:53:50;8.00;;;4.10;;
12050;SDS011;6086;43.546;26.474;2022-08-03T04:56:17;5.57;;;4.10;;
12050;SDS011;6086;43.546;26.474;2022-08-03T04:58:44;4.23;;;3.87;;
12050;SDS011;6086;43.546;26.474;2022-08-03T05:01:11;5.20;;;3.53;;
12050;SDS011;6086;43.546;26.474;2022-08-03T05:03:39;4.40;;;4.03;;
12050;SDS011;6086;43.546;26.474;2022-08-03T05:06:06;3.90;;;3.60;;
12050;SDS011;6086;43.546;26.474;2022-08-03T05:08:34;4.00;;;3.60;;
12050;SDS011;6086;43.546;26.474;2022-08-03T05:11:01;4.23;;;3.83;;
12050;SDS011;6086;43.546;26.474;2022-08-03T05:13:28;4.27;;;3.43;;
12050;SDS011;6086;43.546;26.474;2022-08-03T05:15:55;4.00;;;3.70;;
12050;SDS011;6086;43.546;26.474;2022-08-03T05:18:22;4.10;;;3.80;;
12050;SDS011;6086;43.546;26.474;2022-08-03T05:20:50;14.93;;;5.50;;
12050;SDS011;6086;43.546;26.474;2022-08-03T05:23:17;4.20;;;3.23;;
12050;SDS011;6086;43.546;26.474;2022-08-03T05:25:47;3.60;;;3.30;;
12050;SDS011;6086;43.546;26.474;2022-08-03T05:28:14;3.73;;;3.40;;
12050;SDS011;6086;43.546;26.474;2022-08-03T05:30:41;7.20;;;3.67;;
12050;SDS011;6086;43.546;26.474;2022-08-03T05:33:08;3.50;;;3.20;;
12050;SDS011;6086;43.546;26.474;2022-08-03T05:35:35;4.80;;;3.40;;
12050;SDS011;6086;43.546;26.474;2022-08-03T05:38:04;5.50;;;3.73;;
12050;SDS011;6086;43.546;26.474;2022-08-03T05:40:31;4.20;;;3.40;;
12050;SDS011;6086;43.546;26.474;2022-08-03T05:42:59;3.63;;;3.33;;
12050;SDS011;6086;43.546;26.474;2022-08-03T05:45:26;4.53;;;4.00;;
12050;SDS011;6086;43.546;26.474;2022-08-03T05:47:53;4.13;;;3.23;;
12050;SDS011;6086;43.546;26.474;2022-08-03T05:50:20;3.27;;;3.07;;
12050;SDS011;6086;43.546;26.474;2022-08-03T05:52:47;3.37;;;2.70;;
12050;SDS011;6086;43.546;26.474;2022-08-03T05:55:16;5.10;;;3.37;;
12050;SDS011;6086;43.546;26.474;2022-08-03T05:57:44;3.83;;;3.53;;
12050;SDS011;6086;43.546;26.474;2022-08-03T06:00:11;2.97;;;2.67;;
12050;SDS011;6086;43.546;26.474;2022-08-03T06:02:39;3.23;;;2.80;;
12050;SDS011;6086;43.546;26.474;2022-08-03T06:05:06;3.63;;;3.30;;
12050;SDS011;6086;43.546;26.474;2022-08-03T06:07:34;3.37;;;2.87;;
12050;SDS011;6086;43.546;26.474;2022-08-03T06:10:01;4.47;;;2.97;;
12050;SDS011;6086;43.546;26.474;2022-08-03T06:12:30;2.77;;;2.57;;
12050;SDS011;6086;43.546;26.474;2022-08-03T06:15:00;2.80;;;2.60;;
12050;SDS011;6086;43.546;26.474;2022-08-03T06:17:27;3.30;;;2.20;;
12050;SDS011;6086;43.546;26.474;2022-08-03T06:19:54;1.90;;;1.80;;
12050;SDS011;6086;43.546;26.474;2022-08-03T06:22:22;2.50;;;2.30;;
12050;SDS011;6086;43.546;26.474;2022-08-03T06:24:49;2.10;;;1.90;;
12050;SDS011;6086;43.546;26.474;2022-08-03T06:27:16;1.60;;;1.50;;
12050;SDS011;6086;43.546;26.474;2022-08-03T06:29:45;2.50;;;2.30;;
12050;SDS011;6086;43.546;26.474;2022-08-03T06:32:11;3.73;;;2.47;;
12050;SDS011;6086;43.546;26.474;2022-08-03T06:34:38;2.90;;;2.60;;
12050;SDS011;6086;43.546;26.474;2022-08-03T06:37:05;2.30;;;1.63;;
12050;SDS011;6086;43.546;26.474;2022-08-03T06:39:32;2.03;;;1.77;;
12050;SDS011;6086;43.546;26.474;2022-08-03T06:41:59;4.03;;;2.37;;
12050;SDS011;6086;43.546;26.474;2022-08-03T06:44:26;3.20;;;1.80;;
12050;SDS011;6086;43.546;26.474;2022-08-03T06:46:54;2.10;;;1.50;;
12050;SDS011;6086;43.546;26.474;2022-08-03T06:49:22;1.50;;;1.40;;
12050;SDS011;6086;43.546;26.474;2022-08-03T06:51:49;1.80;;;1.70;;
12050;SDS011;6086;43.546;26.474;2022-08-03T06:54:18;3.33;;;1.40;;
12050;SDS011;6086;43.546;26.474;2022-08-03T06:56:46;2.77;;;1.67;;
12050;SDS011;6086;43.546;26.474;2022-08-03T06:59:13;1.80;;;1.53;;
12050;SDS011;6086;43.546;26.474;2022-08-03T07:01:40;1.43;;;1.40;;
12050;SDS011;6086;43.546;26.474;2022-08-03T07:04:08;4.10;;;1.60;;
12050;SDS011;6086;43.546;26.474;2022-08-03T07:06:36;1.77;;;1.20;;
12050;SDS011;6086;43.546;26.474;2022-08-03T07:09:03;1.47;;;1.43;;
12050;SDS011;6086;43.546;26.474;2022-08-03T07:11:30;1.90;;;1.50;;
12050;SDS011;6086;43.546;26.474;2022-08-03T07:13:57;1.80;;;1.70;;
12050;SDS011;6086;43.546;26.474;2022-08-03T07:16:24;1.67;;;1.43;;
12050;SDS011;6086;43.546;26.474;2022-08-03T07:18:51;1.83;;;1.63;;
12050;SDS011;6086;43.546;26.474;2022-08-03T07:21:19;3.83;;;1.83;;
12050;SDS011;6086;43.546;26.474;2022-08-03T07:23:46;1.80;;;1.70;;
12050;SDS011;6086;43.546;26.474;2022-08-03T07:26:13;2.57;;;1.60;;
12050;SDS011;6086;43.546;26.474;2022-08-03T07:28:40;2.80;;;1.53;;
12050;SDS011;6086;43.546;26.474;2022-08-03T07:31:07;2.63;;;1.77;;
12050;SDS011;6086;43.546;26.474;2022-08-03T07:33:34;2.23;;;1.53;;
12050;SDS011;6086;43.546;26.474;2022-08-03T07:36:01;1.67;;;1.57;;
12050;SDS011;6086;43.546;26.474;2022-08-03T07:38:30;1.43;;;1.33;;
12050;SDS011;6086;43.546;26.474;2022-08-03T07:40:56;1.57;;;1.47;;
12050;SDS011;6086;43.546;26.474;2022-08-03T07:43:23;1.70;;;1.57;;
12050;SDS011;6086;43.546;26.474;2022-08-03T07:45:50;1.60;;;1.50;;
12050;SDS011;6086;43.546;26.474;2022-08-03T07:48:17;1.97;;;1.87;;
12050;SDS011;6086;43.546;26.474;2022-08-03T07:50:44;1.47;;;1.37;;
12050;SDS011;6086;43.546;26.474;2022-08-03T07:53:11;1.33;;;1.33;;
12050;SDS011;6086;43.546;26.474;2022-08-03T07:55:39;1.43;;;1.33;;
12050;SDS011;6086;43.546;26.474;2022-08-03T07:58:07;2.43;;;1.50;;
12050;SDS011;6086;43.546;26.474;2022-08-03T08:00:36;1.57;;;1.47;;
12050;SDS011;6086;43.546;26.474;2022-08-03T08:03:04;1.57;;;1.47;;
12050;SDS011;6086;43.546;26.474;2022-08-03T08:05:30;1.80;;;1.70;;
12050;SDS011;6086;43.546;26.474;2022-08-03T08:07:57;2.00;;;1.37;;
12050;SDS011;6086;43.546;26.474;2022-08-03T08:10:25;3.27;;;1.53;;
12050;SDS011;6086;43.546;26.474;2022-08-03T08:12:54;2.93;;;1.60;;
12050;SDS011;6086;43.546;26.474;2022-08-03T08:15:21;1.63;;;1.47;;
12050;SDS011;6086;43.546;26.474;2022-08-03T08:17:49;2.80;;;1.70;;
12050;SDS011;6086;43.546;26.474;2022-08-03T08:20:19;4.57;;;1.80;;
12050;SDS011;6086;43.546;26.474;2022-08-03T08:22:46;2.00;;;1.90;;
12050;SDS011;6086;43.546;26.474;2022-08-03T08:25:13;1.47;;;1.40;;
12050;SDS011;6086;43.546;26.474;2022-08-03T08:27:41;3.17;;;1.83;;
12050;SDS011;6086;43.546;26.474;2022-08-03T08:30:11;13.47;;;6.73;;
12050;SDS011;6086;43.546;26.474;2022-08-03T08:32:39;6.53;;;4.43;;
12050;SDS011;6086;43.546;26.474;2022-08-03T08:35:07;2.20;;;2.00;;
12050;SDS011;6086;43.546;26.474;2022-08-03T08:37:34;4.50;;;1.90;;
12050;SDS011;6086;43.546;26.474;2022-08-03T08:40:01;1.90;;;1.57;;
12050;SDS011;6086;43.546;26.474;2022-08-03T08:42:30;2.23;;;1.50;;
12050;SDS011;6086;43.546;26.474;2022-08-03T08:44:57;2.53;;;1.70;;
12050;SDS011;6086;43.546;26.474;2022-08-03T08:47:28;1.93;;;1.80;;
12050;SDS011;6086;43.546;26.474;2022-08-03T08:49:56;2.87;;;1.77;;
12050;SDS011;6086;43.546;26.474;2022-08-03T08:52:25;2.27;;;1.80;;
12050;SDS011;6086;43.546;26.474;2022-08-03T08:54:53;1.80;;;1.70;;
12050;SDS011;6086;43.546;26.474;2022-08-03T08:57:22;1.60;;;1.50;;
12050;SDS011;6086;43.546;26.474;2022-08-03T08:59:54;2.00;;;1.90;;
12050;SDS011;6086;43.546;26.474;2022-08-03T09:02:22;1.90;;;1.70;;
12050;SDS011;6086;43.546;26.474;2022-08-03T09:04:50;3.10;;;1.90;;
12050;SDS011;6086;43.546;26.474;2022-08-03T09:07:19;1.73;;;1.63;;
12050;SDS011;6086;43.546;26.474;2022-08-03T09:09:46;2.87;;;1.70;;
12050;SDS011;6086;43.546;26.474;2022-08-03T09:12:13;2.03;;;1.83;;
12050;SDS011;6086;43.546;26.474;2022-08-03T09:14:40;2.00;;;1.90;;
12050;SDS011;6086;43.546;26.474;2022-08-03T09:17:07;1.70;;;1.60;;
12050;SDS011;6086;43.546;26.474;2022-08-03T09:19:34;2.00;;;1.63;;
12050;SDS011;6086;43.546;26.474;2022-08-03T09:22:09;3.43;;;1.77;;
12050;SDS011;6086;43.546;26.474;2022-08-03T09:24:38;1.87;;;1.70;;
12050;SDS011;6086;43.546;26.474;2022-08-03T09:27:20;1.83;;;1.70;;
12050;SDS011;6086;43.546;26.474;2022-08-03T09:29:47;1.70;;;1.60;;
12050;SDS011;6086;43.546;26.474;2022-08-03T09:32:15;1.70;;;1.60;;
12050;SDS011;6086;43.546;26.474;2022-08-03T09:34:45;1.70;;;1.60;;
12050;SDS011;6086;43.546;26.474;2022-08-03T09:37:15;2.90;;;2.17;;
12050;SDS011;6086;43.546;26.474;2022-08-03T09:39:43;2.60;;;2.07;;
12050;SDS011;6086;43.546;26.474;2022-08-03T09:42:11;2.77;;;1.97;;
12050;SDS011;6086;43.546;26.474;2022-08-03T09:44:42;2.10;;;1.90;;
12050;SDS011;6086;43.546;26.474;2022-08-03T09:47:10;3.87;;;2.00;;
12050;SDS011;6086;43.546;26.474;2022-08-03T09:49:39;2.27;;;2.17;;
12050;SDS011;6086;43.546;26.474;2022-08-03T09:52:13;2.00;;;1.90;;
12050;SDS011;6086;43.546;26.474;2022-08-03T09:54:43;1.83;;;1.73;;
12050;SDS011;6086;43.546;26.474;2022-08-03T09:57:19;2.23;;;1.90;;
12050;SDS011;6086;43.546;26.474;2022-08-03T09:59:47;2.83;;;2.47;;
12050;SDS011;6086;43.546;26.474;2022-08-03T10:02:22;2.20;;;2.10;;
12050;SDS011;6086;43.546;26.474;2022-08-03T10:04:50;2.43;;;2.30;;
12050;SDS011;6086;43.546;26.474;2022-08-03T10:07:20;2.70;;;2.10;;
12050;SDS011;6086;43.546;26.474;2022-08-03T10:09:55;2.90;;;2.00;;
12050;SDS011;6086;43.546;26.474;2022-08-03T10:12:23;2.10;;;2.00;;
12050;SDS011;6086;43.546;26.474;2022-08-03T10:14:50;2.10;;;2.00;;
12050;SDS011;6086;43.546;26.474;2022-08-03T10:17:18;2.30;;;2.20;;
12050;SDS011;6086;43.546;26.474;2022-08-03T10:19:45;4.00;;;2.10;;
12050;SDS011;6086;43.546;26.474;2022-08-03T10:22:13;2.67;;;2.47;;
12050;SDS011;6086;43.546;26.474;2022-08-03T10:24:45;2.33;;;2.13;;
12050;SDS011;6086;43.546;26.474;2022-08-03T10:27:18;2.40;;;2.20;;
12050;SDS011;6086;43.546;26.474;2022-08-03T10:29:46;2.43;;;2.00;;
12050;SDS011;6086;43.546;26.474;2022-08-03T10:32:19;2.30;;;2.20;;
12050;SDS011;6086;43.546;26.474;2022-08-03T10:34:51;2.37;;;2.17;;
12050;SDS011;6086;43.546;26.474;2022-08-03T10:37:24;2.40;;;2.20;;
12050;SDS011;6086;43.546;26.474;2022-08-03T10:39:56;2.50;;;2.30;;
12050;SDS011;6086;43.546;26.474;2022-08-03T10:42:26;2.17;;;1.83;;
12050;SDS011;6086;43.546;26.474;2022-08-03T10:44:59;2.73;;;2.10;;
12050;SDS011;6086;43.546;26.474;2022-08-03T10:47:29;2.60;;;2.03;;
12050;SDS011;6086;43.546;26.474;2022-08-03T10:49:56;1.83;;;1.70;;
12050;SDS011;6086;43.546;26.474;2022-08-03T10:52:24;2.90;;;2.00;;
12050;SDS011;6086;43.546;26.474;2022-08-03T10:54:51;3.10;;;2.40;;
12050;SDS011;6086;43.546;26.474;2022-08-03T10:57:43;2.23;;;1.90;;
12050;SDS011;6086;43.546;26.474;2022-08-03T11:00:11;2.13;;;1.93;;
12050;SDS011;6086;43.546;26.474;2022-08-03T11:05:31;1.97;;;1.80;;
12050;SDS011;6086;43.546;26.474;2022-08-03T11:10:45;1.87;;;1.77;;
12050;SDS011;6086;43.546;26.474;2022-08-03T11:13:15;2.00;;;1.90;;
12050;SDS011;6086;43.546;26.474;2022-08-03T11:15:45;3.57;;;1.97;;
12050;SDS011;6086;43.546;26.474;2022-08-03T11:18:14;3.47;;;2.00;;
12050;SDS011;6086;43.546;26.474;2022-08-03T11:20:44;1.80;;;1.70;;
12050;SDS011;6086;43.546;26.474;2022-08-03T11:23:12;3.00;;;2.13;;
12050;SDS011;6086;43.546;26.474;2022-08-03T11:28:40;2.33;;;1.80;;
12050;SDS011;6086;43.546;26.474;2022-08-03T11:34:13;1.83;;;1.60;;
12050;SDS011;6086;43.546;26.474;2022-08-03T11:39:50;1.50;;;1.40;;
12050;SDS011;6086;43.546;26.474;2022-08-03T11:42:41;2.93;;;1.60;;
12050;SDS011;6086;43.546;26.474;2022-08-03T11:45:13;2.57;;;1.80;;
12050;SDS011;6086;43.546;26.474;2022-08-03T11:47:40;1.90;;;1.80;;
12050;SDS011;6086;43.546;26.474;2022-08-03T11:50:08;2.00;;;1.80;;
12050;SDS011;6086;43.546;26.474;2022-08-03T11:52:39;2.90;;;1.70;;
12050;SDS011;6086;43.546;26.474;2022-08-03T11:55:10;2.00;;;1.80;;
12050;SDS011;6086;43.546;26.474;2022-08-03T11:57:39;2.37;;;1.77;;
12050;SDS011;6086;43.546;26.474;2022-08-03T12:02:56;2.17;;;1.73;;
12050;SDS011;6086;43.546;26.474;2022-08-03T12:05:32;2.30;;;1.80;;
12050;SDS011;6086;43.546;26.474;2022-08-03T12:08:03;1.90;;;1.70;;
12050;SDS011;6086;43.546;26.474;2022-08-03T12:10:31;4.40;;;1.67;;
12050;SDS011;6086;43.546;26.474;2022-08-03T12:12:59;1.67;;;1.57;;
12050;SDS011;6086;43.546;26.474;2022-08-03T12:15:31;1.37;;;1.37;;
12050;SDS011;6086;43.546;26.474;2022-08-03T12:17:59;1.50;;;1.50;;
12050;SDS011;6086;43.546;26.474;2022-08-03T12:20:27;2.60;;;1.50;;
12050;SDS011;6086;43.546;26.474;2022-08-03T12:23:00;2.40;;;1.60;;
12050;SDS011;6086;43.546;26.474;2022-08-03T12:25:29;1.50;;;1.50;;
12050;SDS011;6086;43.546;26.474;2022-08-03T12:28:04;4.03;;;3.47;;
12050;SDS011;6086;43.546;26.474;2022-08-03T12:30:35;2.43;;;1.80;;
12050;SDS011;6086;43.546;26.474;2022-08-03T12:33:19;2.13;;;1.73;;
12050;SDS011;6086;43.546;26.474;2022-08-03T12:35:48;1.90;;;1.80;;
12050;SDS011;6086;43.546;26.474;2022-08-03T12:38:20;1.60;;;1.50;;
12050;SDS011;6086;43.546;26.474;2022-08-03T12:40:55;1.80;;;1.70;;
12050;SDS011;6086;43.546;26.474;2022-08-03T12:43:22;1.60;;;1.50;;
12050;SDS011;6086;43.546;26.474;2022-08-03T12:46:06;1.63;;;1.60;;
12050;SDS011;6086;43.546;26.474;2022-08-03T12:51:24;1.57;;;1.47;;
12050;SDS011;6086;43.546;26.474;2022-08-03T12:53:52;1.90;;;1.80;;
12050;SDS011;6086;43.546;26.474;2022-08-03T12:56:19;1.33;;;1.33;;
12050;SDS011;6086;43.546;26.474;2022-08-03T12:58:46;2.73;;;1.50;;
12050;SDS011;6086;43.546;26.474;2022-08-03T13:01:15;1.83;;;1.73;;
12050;SDS011;6086;43.546;26.474;2022-08-03T13:03:43;1.80;;;1.70;;
12050;SDS011;6086;43.546;26.474;2022-08-03T13:06:11;1.50;;;1.50;;
12050;SDS011;6086;43.546;26.474;2022-08-03T13:08:38;1.60;;;1.50;;
12050;SDS011;6086;43.546;26.474;2022-08-03T13:11:18;1.60;;;1.50;;
12050;SDS011;6086;43.546;26.474;2022-08-03T13:13:46;2.00;;;1.63;;
12050;SDS011;6086;43.546;26.474;2022-08-03T13:16:13;1.87;;;1.77;;
12050;SDS011;6086;43.546;26.474;2022-08-03T13:18:41;1.33;;;1.27;;
12050;SDS011;6086;43.546;26.474;2022-08-03T13:21:11;1.47;;;1.33;;
12050;SDS011;6086;43.546;26.474;2022-08-03T13:23:38;2.00;;;1.40;;
12050;SDS011;6086;43.546;26.474;2022-08-03T13:26:05;4.40;;;1.60;;
12050;SDS011;6086;43.546;26.474;2022-08-03T13:28:32;1.70;;;1.60;;
12050;SDS011;6086;43.546;26.474;2022-08-03T13:30:59;2.30;;;1.70;;
12050;SDS011;6086;43.546;26.474;2022-08-03T13:33:26;1.50;;;1.40;;
12050;SDS011;6086;43.546;26.474;2022-08-03T13:35:55;1.43;;;1.43;;
12050;SDS011;6086;43.546;26.474;2022-08-03T13:38:22;1.70;;;1.60;;
12050;SDS011;6086;43.546;26.474;2022-08-03T13:40:50;1.57;;;1.47;;
12050;SDS011;6086;43.546;26.474;2022-08-03T13:43:17;1.70;;;1.60;;
12050;SDS011;6086;43.546;26.474;2022-08-03T13:45:44;2.07;;;1.50;;
12050;SDS011;6086;43.546;26.474;2022-08-03T13:48:11;1.53;;;1.43;;
12050;SDS011;6086;43.546;26.474;2022-08-03T13:50:38;1.63;;;1.47;;
12050;SDS011;6086;43.546;26.474;2022-08-03T13:53:06;1.67;;;1.57;;
12050;SDS011;6086;43.546;26.474;2022-08-03T13:55:33;2.00;;;1.77;;
12050;SDS011;6086;43.546;26.474;2022-08-03T13:58:00;2.47;;;1.30;;
12050;SDS011;6086;43.546;26.474;2022-08-03T14:00:27;1.80;;;1.70;;
12050;SDS011;6086;43.546;26.474;2022-08-03T14:02:58;2.00;;;1.30;;
12050;SDS011;6086;43.546;26.474;2022-08-03T14:05:25;1.80;;;1.70;;
12050;SDS011;6086;43.546;26.474;2022-08-03T14:07:52;1.83;;;1.73;;
12050;SDS011;6086;43.546;26.474;2022-08-03T14:10:21;2.53;;;1.60;;
12050;SDS011;6086;43.546;26.474;2022-08-03T14:12:47;3.67;;;2.13;;
12050;SDS011;6086;43.546;26.474;2022-08-03T14:15:14;1.80;;;1.70;;
12050;SDS011;6086;43.546;26.474;2022-08-03T14:17:41;1.70;;;1.60;;
12050;SDS011;6086;43.546;26.474;2022-08-03T14:20:09;1.57;;;1.50;;
12050;SDS011;6086;43.546;26.474;2022-08-03T14:22:38;1.70;;;1.60;;
12050;SDS011;6086;43.546;26.474;2022-08-03T14:25:06;4.23;;;1.73;;
12050;SDS011;6086;43.546;26.474;2022-08-03T14:27:34;2.20;;;2.00;;
12050;SDS011;6086;43.546;26.474;2022-08-03T14:30:02;2.43;;;2.10;;
12050;SDS011;6086;43.546;26.474;2022-08-03T14:32:29;2.00;;;1.90;;
12050;SDS011;6086;43.546;26.474;2022-08-03T14:34:56;2.63;;;2.10;;
12050;SDS011;6086;43.546;26.474;2022-08-03T14:37:23;2.87;;;2.27;;
12050;SDS011;6086;43.546;26.474;2022-08-03T14:39:50;2.40;;;2.20;;
12050;SDS011;6086;43.546;26.474;2022-08-03T14:42:17;1.90;;;1.80;;
12050;SDS011;6086;43.546;26.474;2022-08-03T14:44:45;2.23;;;2.03;;
12050;SDS011;6086;43.546;26.474;2022-08-03T14:47:12;2.17;;;1.97;;
12050;SDS011;6086;43.546;26.474;2022-08-03T14:49:39;2.20;;;2.10;;
12050;SDS011;6086;43.546;26.474;2022-08-03T14:52:06;2.33;;;2.07;;
12050;SDS011;6086;43.546;26.474;2022-08-03T14:54:34;3.50;;;1.90;;
12050;SDS011;6086;43.546;26.474;2022-08-03T14:57:01;3.00;;;1.80;;
12050;SDS011;6086;43.546;26.474;2022-08-03T14:59:28;2.23;;;1.77;;
12050;SDS011;6086;43.546;26.474;2022-08-03T15:01:56;1.70;;;1.60;;
12050;SDS011;6086;43.546;26.474;2022-08-03T15:04:23;1.50;;;1.40;;
12050;SDS011;6086;43.546;26.474;2022-08-03T15:06:50;1.67;;;1.30;;
12050;SDS011;6086;43.546;26.474;2022-08-03T15:09:17;1.60;;;1.50;;
12050;SDS011;6086;43.546;26.474;2022-08-03T15:11:44;1.50;;;1.40;;
12050;SDS011;6086;43.546;26.474;2022-08-03T15:14:10;1.70;;;1.60;;
12050;SDS011;6086;43.546;26.474;2022-08-03T15:16:38;1.63;;;1.53;;
12050;SDS011;6086;43.546;26.474;2022-08-03T15:19:06;1.57;;;1.47;;